createdAt,value
2022-09-15T00:00:44.575Z,-108.00
2022-09-15T00:05:51.849Z,-144.00
2022-09-15T00:10:59.089Z,-144.00
2022-09-15T00:16:06.256Z,-108.00
2022-09-15T00:21:13.470Z,-108.00
2022-09-15T00:26:20.714Z,-144.00
2022-09-15T00:31:27.973Z,-108.00
2022-09-15T00:36:35.120Z,-108.00
2022-09-15T00:41:42.301Z,-108.00
2022-09-15T00:47:09.387Z,-144.00
2022-09-15T00:51:56.729Z,-144.00
2022-09-15T00:57:03.921Z,-108.00
2022-09-15T01:02:11.132Z,-108.00
2022-09-15T01:07:18.263Z,-108.00
2022-09-15T01:12:25.539Z,-108.00
2022-09-15T01:17:32.772Z,-144.00
2022-09-15T01:22:40.001Z,-108.00
2022-09-15T01:27:47.231Z,-144.00
2022-09-15T01:32:54.408Z,-108.00
2022-09-15T01:38:01.624Z,-108.00
2022-09-15T01:43:08.824Z,-144.00
2022-09-15T01:48:16.043Z,-108.00
2022-09-15T01:53:23.253Z,-108.00
2022-09-15T01:58:30.485Z,-108.00
2022-09-15T02:03:37.897Z,-108.00
2022-09-15T02:08:45.272Z,-108.00
2022-09-15T02:13:52.319Z,-108.00
2022-09-15T02:18:59.576Z,-108.00
2022-09-15T02:24:06.799Z,-108.00
2022-09-15T02:29:14.010Z,-108.00
2022-09-15T02:34:21.226Z,-108.00
2022-09-15T02:39:28.447Z,-144.00
2022-09-15T02:44:35.741Z,-108.00
2022-09-15T02:49:42.895Z,-108.00
2022-09-15T02:54:50.162Z,-108.00
2022-09-15T02:59:57.446Z,-108.00
2022-09-15T03:05:04.750Z,-108.00
2022-09-15T03:10:11.983Z,-108.00
2022-09-15T03:15:19.313Z,-108.00
2022-09-15T03:20:26.451Z,-108.00
2022-09-15T03:25:33.759Z,-108.00
2022-09-15T03:30:41.054Z,-108.00
2022-09-15T03:35:52.912Z,-108.00
2022-09-15T03:41:00.213Z,-108.00
2022-09-15T03:46:12.646Z,-108.00
2022-09-15T03:51:21.784Z,-108.00
2022-09-15T03:56:29.069Z,-108.00
2022-09-15T04:01:36.362Z,-108.00
2022-09-15T04:06:43.534Z,-108.00
2022-09-15T04:11:50.782Z,-108.00
2022-09-15T04:16:58.016Z,-144.00
2022-09-15T04:22:05.218Z,-144.00
2022-09-15T04:27:12.437Z,-108.00
2022-09-15T04:32:19.657Z,-108.00
2022-09-15T04:37:26.913Z,-108.00
2022-09-15T04:42:34.847Z,-108.00
2022-09-15T04:47:42.168Z,-108.00
2022-09-15T04:52:49.295Z,-144.00
2022-09-15T04:57:56.542Z,-108.00
2022-09-15T05:03:03.792Z,-108.00
2022-09-15T05:08:10.993Z,-72.00
2022-09-15T05:13:18.222Z,-72.00
2022-09-15T05:18:25.464Z,-72.00
2022-09-15T05:23:32.653Z,-36.00
2022-09-15T05:28:39.832Z,0.00
2022-09-15T05:33:47.147Z,0.00
2022-09-15T05:38:54.316Z,0.00
2022-09-15T05:44:01.469Z,36.00
2022-09-15T05:49:08.689Z,72.00
2022-09-15T05:54:15.897Z,72.00
2022-09-15T05:59:23.088Z,108.00
2022-09-15T06:04:30.355Z,108.00
2022-09-15T06:09:37.588Z,180.00
2022-09-15T06:14:44.853Z,144.00
2022-09-15T06:19:52.310Z,108.00
2022-09-15T06:24:59.403Z,72.00
2022-09-15T06:30:06.672Z,0.00
2022-09-15T06:35:13.983Z,36.00
2022-09-15T06:40:21.218Z,36.00
2022-09-15T06:45:28.417Z,72.00
2022-09-15T06:50:35.700Z,216.00
2022-09-15T06:55:42.903Z,252.00
2022-09-15T07:00:50.123Z,15444.00
2022-09-15T07:05:57.428Z,14688.00
2022-09-15T07:11:04.610Z,15336.00
2022-09-15T07:16:11.952Z,13932.00
2022-09-15T07:21:19.065Z,11376.00
2022-09-15T07:26:26.214Z,11412.00
2022-09-15T07:31:33.481Z,12744.00
2022-09-15T07:36:40.582Z,13464.00
2022-09-15T07:41:47.718Z,12204.00
2022-09-15T07:46:54.901Z,11340.00
2022-09-15T07:52:02.057Z,10044.00
2022-09-15T07:57:09.232Z,7884.00
2022-09-15T08:02:16.516Z,4824.00
2022-09-15T08:07:23.669Z,6192.00
2022-09-15T08:12:30.842Z,7236.00
2022-09-15T08:17:38.025Z,5508.00
2022-09-15T08:22:45.310Z,6948.00
2022-09-15T08:27:52.405Z,8208.00
2022-09-15T08:32:59.717Z,8928.00
2022-09-15T08:38:07.002Z,8532.00
2022-09-15T08:43:14.193Z,9324.00
2022-09-15T08:48:21.400Z,9288.00
2022-09-15T08:53:28.627Z,10548.00
2022-09-15T08:58:35.782Z,10476.00
2022-09-15T09:03:42.963Z,11340.00
2022-09-15T09:08:50.265Z,11592.00
2022-09-15T09:13:57.333Z,10152.00
2022-09-15T09:19:04.518Z,7668.00
2022-09-15T09:24:11.828Z,7776.00
2022-09-15T09:29:18.958Z,7560.00
2022-09-15T09:34:26.140Z,7056.00
2022-09-15T09:39:33.475Z,8352.00
2022-09-15T09:44:40.557Z,9864.00
2022-09-15T09:49:47.807Z,10080.00
2022-09-15T09:54:55.053Z,10512.00
2022-09-15T10:00:02.239Z,12096.00
2022-09-15T10:05:09.553Z,11556.00
2022-09-15T10:10:16.710Z,11880.00
2022-09-15T10:15:23.949Z,12420.00
2022-09-15T10:20:31.111Z,12888.00
2022-09-15T10:26:00.230Z,13968.00
2022-09-15T10:30:45.467Z,14436.00
2022-09-15T10:35:52.652Z,11808.00
2022-09-15T10:40:59.975Z,11376.00
2022-09-15T10:46:07.157Z,11808.00
2022-09-15T10:51:14.241Z,12636.00
2022-09-15T10:56:21.543Z,13500.00
2022-09-15T11:01:28.715Z,12456.00
2022-09-15T11:06:35.900Z,13248.00
2022-09-15T11:11:43.127Z,14580.00
2022-09-15T11:16:50.313Z,13860.00
2022-09-15T11:21:57.506Z,13104.00
2022-09-15T11:27:04.765Z,15048.00
2022-09-15T11:32:11.950Z,15624.00
2022-09-15T11:37:19.197Z,16596.00
2022-09-15T11:42:26.444Z,13716.00
2022-09-15T11:47:33.658Z,12420.00
2022-09-15T11:52:40.863Z,11232.00
2022-09-15T11:57:48.662Z,9324.00
2022-09-15T12:02:55.933Z,9216.00
2022-09-15T12:08:03.069Z,10224.00
2022-09-15T12:13:10.339Z,10584.00
2022-09-15T12:18:37.372Z,13860.00
2022-09-15T12:23:24.788Z,15948.00
2022-09-15T12:28:32.108Z,13932.00
2022-09-15T12:33:39.219Z,11736.00
2022-09-15T12:38:46.434Z,8856.00
2022-09-15T12:43:53.732Z,8460.00
2022-09-15T12:49:00.857Z,8856.00
2022-09-15T12:54:08.033Z,9216.00
2022-09-15T12:59:15.257Z,9720.00
2022-09-15T13:04:22.558Z,9576.00
2022-09-15T13:09:29.739Z,8856.00
2022-09-15T13:14:36.965Z,8208.00
2022-09-15T13:19:44.112Z,6552.00
2022-09-15T13:24:51.322Z,6948.00
2022-09-15T13:29:58.538Z,7848.00
2022-09-15T13:35:14.292Z,8568.00
2022-09-15T13:40:13.069Z,8064.00
2022-09-15T13:45:20.199Z,7848.00
2022-09-15T13:50:27.387Z,7452.00
2022-09-15T13:55:34.582Z,7920.00
2022-09-15T14:00:41.815Z,8496.00
2022-09-15T14:05:49.043Z,7776.00
2022-09-15T14:10:56.304Z,8928.00
2022-09-15T14:16:03.693Z,9756.00
2022-09-15T14:21:10.636Z,10368.00
2022-09-15T14:26:17.856Z,9504.00
2022-09-15T14:31:25.097Z,9792.00
2022-09-15T14:36:32.279Z,8676.00
2022-09-15T14:41:39.466Z,9072.00
2022-09-15T14:46:46.752Z,9468.00
2022-09-15T14:51:53.948Z,10188.00
2022-09-15T14:57:01.146Z,11520.00
2022-09-15T15:02:08.511Z,8856.00
2022-09-15T15:07:15.556Z,7632.00
2022-09-15T15:12:22.767Z,5292.00
2022-09-15T15:17:30.014Z,3672.00
2022-09-15T15:22:37.182Z,3096.00
2022-09-15T15:27:44.398Z,3816.00
2022-09-15T15:32:51.594Z,4644.00
2022-09-15T15:37:58.790Z,4572.00
2022-09-15T15:43:06.001Z,3168.00
2022-09-15T15:48:13.214Z,2268.00
2022-09-15T15:53:20.411Z,2592.00
2022-09-15T15:58:27.605Z,3636.00
2022-09-15T16:03:34.862Z,4356.00
2022-09-15T16:08:42.030Z,3096.00
2022-09-15T16:13:49.231Z,3024.00
2022-09-15T16:18:56.462Z,3528.00
2022-09-15T16:24:03.646Z,3276.00
2022-09-15T16:29:10.885Z,2304.00
2022-09-15T16:34:18.182Z,-72.00
2022-09-15T16:39:25.337Z,-72.00
2022-09-15T16:44:32.580Z,-108.00
2022-09-15T16:49:39.786Z,-108.00
2022-09-15T16:54:47.023Z,-108.00
2022-09-15T16:59:55.335Z,-108.00
2022-09-15T17:05:02.530Z,-108.00
2022-09-15T17:10:09.726Z,-108.00
2022-09-15T17:15:17.015Z,-108.00
2022-09-15T17:20:24.247Z,-144.00
2022-09-15T17:25:31.652Z,-108.00
2022-09-15T17:30:39.236Z,-108.00
2022-09-15T17:35:46.668Z,-144.00
2022-09-15T17:40:54.031Z,-144.00
2022-09-15T17:46:01.288Z,-144.00
2022-09-15T17:51:08.478Z,-108.00
2022-09-15T17:56:15.781Z,-108.00
2022-09-15T18:01:23.340Z,-108.00
2022-09-15T18:06:30.814Z,-108.00
2022-09-15T18:11:38.406Z,-108.00
2022-09-15T18:16:45.913Z,1440.00
2022-09-15T18:21:53.662Z,1656.00
2022-09-15T18:27:01.350Z,1656.00
2022-09-15T18:32:09.065Z,1620.00
2022-09-15T18:37:16.545Z,1620.00
2022-09-15T18:42:27.190Z,1620.00
2022-09-15T18:47:31.399Z,1332.00
2022-09-15T18:52:39.142Z,1296.00
2022-09-15T18:57:46.457Z,1332.00
2022-09-15T19:02:53.928Z,1152.00
2022-09-15T19:08:01.387Z,1188.00
2022-09-15T19:13:08.630Z,1224.00
2022-09-15T19:18:15.904Z,9216.00
2022-09-15T19:23:23.494Z,9108.00
2022-09-15T19:28:31.084Z,8892.00
2022-09-15T19:33:38.694Z,9072.00
2022-09-15T19:38:47.357Z,9036.00
2022-09-15T19:43:55.055Z,9252.00
2022-09-15T19:49:02.426Z,9036.00
2022-09-15T19:54:09.890Z,8928.00
2022-09-15T19:59:17.172Z,9324.00
2022-09-15T20:05:06.247Z,9252.00
2022-09-15T20:10:13.490Z,9144.00
2022-09-15T20:15:20.662Z,9108.00
2022-09-15T20:20:27.886Z,9288.00
2022-09-15T20:25:35.116Z,9252.00
2022-09-15T20:31:17.992Z,8964.00
2022-09-15T20:36:25.230Z,9000.00
2022-09-15T20:41:32.433Z,9072.00
2022-09-15T20:46:39.591Z,8748.00
2022-09-15T20:51:46.847Z,8784.00
2022-09-15T20:56:54.185Z,8820.00
2022-09-15T21:02:01.315Z,8820.00
2022-09-15T21:07:08.505Z,8604.00
2022-09-15T21:12:15.664Z,8532.00
2022-09-15T21:17:22.843Z,8640.00
2022-09-15T21:22:30.090Z,8640.00
2022-09-15T21:27:37.331Z,9108.00
2022-09-15T21:32:44.532Z,9108.00
2022-09-15T21:37:51.801Z,9144.00
2022-09-15T21:42:59.071Z,8892.00
2022-09-15T21:48:06.292Z,8784.00
2022-09-15T21:53:13.529Z,9108.00
2022-09-15T21:58:20.775Z,9072.00
2022-09-15T22:03:27.968Z,9252.00
2022-09-15T22:08:35.238Z,9360.00
2022-09-15T22:13:42.584Z,9288.00
2022-09-15T22:18:49.779Z,8856.00
2022-09-15T22:23:57.020Z,9108.00
2022-09-15T22:29:04.299Z,9036.00
2022-09-15T22:34:11.445Z,9036.00
2022-09-15T22:39:18.666Z,8892.00
2022-09-15T22:44:25.899Z,8892.00
2022-09-15T22:49:33.084Z,-72.00
2022-09-15T22:54:40.672Z,-144.00
2022-09-15T22:59:47.871Z,-108.00
2022-09-15T23:04:55.115Z,-144.00
2022-09-15T23:10:02.391Z,-144.00
2022-09-15T23:15:09.545Z,-144.00
2022-09-15T23:20:16.726Z,-144.00
2022-09-15T23:25:23.935Z,-108.00
2022-09-15T23:30:31.180Z,-144.00
2022-09-15T23:35:38.340Z,-108.00
2022-09-15T23:40:45.576Z,-144.00
2022-09-15T23:45:52.785Z,-144.00
2022-09-15T23:51:00.054Z,-144.00
2022-09-15T23:56:07.235Z,-144.00
